LZIB/BTS METAR and TAF weather

Enter ICAO airport designator
Station Type Date Time Source
LZIB METAR 2019/02/21 12:30 UTC NOAA

LZIB 211230Z 28010KT 220V310 9999 FEW042 SCT082 12/02 Q1026 NOSIG


Station Type Date Time Source
LZIB Decoded METAR 2019/02/21 12:30 UTC NOAA

Bratislava Ivanka, Slovakia (LZIB) 48-12N 017-12E 142M
Feb 21, 2019 - 07:30 AM EST / 2019.02.21 1230 UTC
Wind: from the W (280 degrees) at 12 MPH (10 KT) (direction variable):0
Visibility: greater than 7 mile(s):0
Sky conditions: partly cloudy
Temperature: 53 F (12 C)
Dew Point: 35 F (2 C)
Relative Humidity: 50%
Pressure (altimeter): 30.30 in. Hg (1026 hPa)
ob: LZIB 211230Z 28010KT 220V310 9999 FEW042 SCT082 12/02 Q1026 NOSIG
cycle: 12

Station Type Date Time Source
LZIB TAF 2019/02/21 12:05 UTC NOAA

TAF LZIB 211100Z 2112/2212 30008KT CAVOK
BECMG 2118/2120 9999 -RA BKN030 OVC060
TEMPO 2123/2204 29014KT 5000 -RA BR SCT018 BKN025
BECMG 2207/2209 32012G25KT 9999 SCT030 BKN045


Example: see airport list